sensor_id;sensor_type;location;lat;lon;timestamp;P1;durP1;ratioP1;P2;durP2;ratioP2
56269;SDS011;42176;43.240;27.880;2023-04-19T00:00:18;8.30;;;3.88;;
56269;SDS011;42176;43.240;27.880;2023-04-19T00:02:45;7.70;;;3.85;;
56269;SDS011;42176;43.240;27.880;2023-04-19T00:05:13;7.57;;;3.90;;
56269;SDS011;42176;43.240;27.880;2023-04-19T00:07:38;4.75;;;3.42;;
56269;SDS011;42176;43.240;27.880;2023-04-19T00:10:04;4.15;;;3.45;;
56269;SDS011;42176;43.240;27.880;2023-04-19T00:12:31;6.15;;;3.88;;
56269;SDS011;42176;43.240;27.880;2023-04-19T00:14:56;4.78;;;4.05;;
56269;SDS011;42176;43.240;27.880;2023-04-19T00:17:22;8.32;;;3.92;;
56269;SDS011;42176;43.240;27.880;2023-04-19T00:19:47;7.78;;;4.10;;
56269;SDS011;42176;43.240;27.880;2023-04-19T00:22:12;7.05;;;3.60;;
56269;SDS011;42176;43.240;27.880;2023-04-19T00:24:38;6.25;;;4.10;;
56269;SDS011;42176;43.240;27.880;2023-04-19T00:27:03;7.25;;;3.90;;
56269;SDS011;42176;43.240;27.880;2023-04-19T00:29:29;10.48;;;3.33;;
56269;SDS011;42176;43.240;27.880;2023-04-19T00:31:54;8.35;;;4.03;;
56269;SDS011;42176;43.240;27.880;2023-04-19T00:34:20;7.95;;;4.22;;
56269;SDS011;42176;43.240;27.880;2023-04-19T00:36:45;6.13;;;4.07;;
56269;SDS011;42176;43.240;27.880;2023-04-19T00:39:10;7.15;;;3.63;;
56269;SDS011;42176;43.240;27.880;2023-04-19T00:41:36;8.82;;;4.50;;
56269;SDS011;42176;43.240;27.880;2023-04-19T00:44:01;7.68;;;5.07;;
56269;SDS011;42176;43.240;27.880;2023-04-19T00:46:27;8.35;;;4.43;;
56269;SDS011;42176;43.240;27.880;2023-04-19T00:48:52;11.07;;;5.22;;
56269;SDS011;42176;43.240;27.880;2023-04-19T00:51:18;8.02;;;4.60;;
56269;SDS011;42176;43.240;27.880;2023-04-19T00:53:44;15.35;;;5.90;;
56269;SDS011;42176;43.240;27.880;2023-04-19T00:56:10;12.50;;;5.90;;
56269;SDS011;42176;43.240;27.880;2023-04-19T00:58:37;13.30;;;6.25;;
56269;SDS011;42176;43.240;27.880;2023-04-19T01:01:03;14.40;;;6.82;;
56269;SDS011;42176;43.240;27.880;2023-04-19T01:03:30;13.10;;;6.45;;
56269;SDS011;42176;43.240;27.880;2023-04-19T01:05:55;14.65;;;6.55;;
56269;SDS011;42176;43.240;27.880;2023-04-19T01:08:22;12.52;;;6.30;;
56269;SDS011;42176;43.240;27.880;2023-04-19T01:10:47;11.05;;;6.32;;
56269;SDS011;42176;43.240;27.880;2023-04-19T01:13:13;11.63;;;6.38;;
56269;SDS011;42176;43.240;27.880;2023-04-19T01:15:39;11.45;;;7.35;;
56269;SDS011;42176;43.240;27.880;2023-04-19T01:18:04;12.93;;;7.25;;
56269;SDS011;42176;43.240;27.880;2023-04-19T01:20:30;14.20;;;7.00;;
56269;SDS011;42176;43.240;27.880;2023-04-19T01:22:55;12.27;;;7.18;;
56269;SDS011;42176;43.240;27.880;2023-04-19T01:25:21;16.17;;;7.18;;
56269;SDS011;42176;43.240;27.880;2023-04-19T01:27:46;16.30;;;8.27;;
56269;SDS011;42176;43.240;27.880;2023-04-19T01:30:12;13.63;;;8.35;;
56269;SDS011;42176;43.240;27.880;2023-04-19T01:32:37;12.95;;;7.82;;
56269;SDS011;42176;43.240;27.880;2023-04-19T01:35:04;16.38;;;8.60;;
56269;SDS011;42176;43.240;27.880;2023-04-19T01:37:30;17.10;;;8.20;;
56269;SDS011;42176;43.240;27.880;2023-04-19T01:39:55;13.82;;;8.15;;
56269;SDS011;42176;43.240;27.880;2023-04-19T01:42:21;16.20;;;7.65;;
56269;SDS011;42176;43.240;27.880;2023-04-19T01:44:46;17.25;;;9.13;;
56269;SDS011;42176;43.240;27.880;2023-04-19T01:47:12;16.55;;;8.20;;
56269;SDS011;42176;43.240;27.880;2023-04-19T01:49:37;16.70;;;7.55;;
56269;SDS011;42176;43.240;27.880;2023-04-19T01:52:03;16.58;;;8.15;;
56269;SDS011;42176;43.240;27.880;2023-04-19T01:54:28;14.80;;;6.85;;
56269;SDS011;42176;43.240;27.880;2023-04-19T01:56:54;20.13;;;8.52;;
56269;SDS011;42176;43.240;27.880;2023-04-19T01:59:19;15.68;;;7.80;;
56269;SDS011;42176;43.240;27.880;2023-04-19T02:01:45;14.90;;;8.13;;
56269;SDS011;42176;43.240;27.880;2023-04-19T02:04:10;15.82;;;8.80;;
56269;SDS011;42176;43.240;27.880;2023-04-19T02:06:36;19.35;;;8.93;;
56269;SDS011;42176;43.240;27.880;2023-04-19T02:09:01;15.85;;;8.35;;
56269;SDS011;42176;43.240;27.880;2023-04-19T02:11:27;16.30;;;9.63;;
56269;SDS011;42176;43.240;27.880;2023-04-19T02:13:53;12.43;;;7.70;;
56269;SDS011;42176;43.240;27.880;2023-04-19T02:16:18;12.88;;;7.70;;
56269;SDS011;42176;43.240;27.880;2023-04-19T02:18:43;17.85;;;8.07;;
56269;SDS011;42176;43.240;27.880;2023-04-19T02:21:10;13.98;;;7.40;;
56269;SDS011;42176;43.240;27.880;2023-04-19T02:23:36;19.63;;;9.63;;
56269;SDS011;42176;43.240;27.880;2023-04-19T02:26:02;24.90;;;8.68;;
56269;SDS011;42176;43.240;27.880;2023-04-19T02:28:30;22.88;;;9.20;;
56269;SDS011;42176;43.240;27.880;2023-04-19T02:30:57;20.33;;;9.45;;
56269;SDS011;42176;43.240;27.880;2023-04-19T02:33:24;14.75;;;8.27;;
56269;SDS011;42176;43.240;27.880;2023-04-19T02:35:50;16.00;;;8.82;;
56269;SDS011;42176;43.240;27.880;2023-04-19T02:38:15;16.30;;;7.63;;
56269;SDS011;42176;43.240;27.880;2023-04-19T02:40:41;15.77;;;8.70;;
56269;SDS011;42176;43.240;27.880;2023-04-19T02:43:06;16.02;;;7.55;;
56269;SDS011;42176;43.240;27.880;2023-04-19T02:45:32;13.32;;;7.90;;
56269;SDS011;42176;43.240;27.880;2023-04-19T02:47:57;16.88;;;8.15;;
56269;SDS011;42176;43.240;27.880;2023-04-19T02:50:23;17.42;;;8.95;;
56269;SDS011;42176;43.240;27.880;2023-04-19T02:52:51;17.38;;;8.95;;
56269;SDS011;42176;43.240;27.880;2023-04-19T02:55:16;14.77;;;6.28;;
56269;SDS011;42176;43.240;27.880;2023-04-19T02:57:42;18.17;;;8.65;;
56269;SDS011;42176;43.240;27.880;2023-04-19T03:00:07;12.57;;;7.22;;
56269;SDS011;42176;43.240;27.880;2023-04-19T03:02:34;19.90;;;8.82;;
56269;SDS011;42176;43.240;27.880;2023-04-19T03:05:00;13.77;;;8.07;;
56269;SDS011;42176;43.240;27.880;2023-04-19T03:07:26;16.15;;;7.50;;
56269;SDS011;42176;43.240;27.880;2023-04-19T03:09:51;16.85;;;8.27;;
56269;SDS011;42176;43.240;27.880;2023-04-19T03:12:16;15.10;;;6.72;;
56269;SDS011;42176;43.240;27.880;2023-04-19T03:14:42;21.48;;;8.05;;
56269;SDS011;42176;43.240;27.880;2023-04-19T03:17:07;13.70;;;7.13;;
56269;SDS011;42176;43.240;27.880;2023-04-19T03:19:33;18.27;;;7.30;;
56269;SDS011;42176;43.240;27.880;2023-04-19T03:21:58;17.55;;;8.30;;
56269;SDS011;42176;43.240;27.880;2023-04-19T03:24:30;15.30;;;7.70;;
56269;SDS011;42176;43.240;27.880;2023-04-19T03:26:56;12.63;;;8.00;;
56269;SDS011;42176;43.240;27.880;2023-04-19T03:29:21;9.70;;;6.32;;
56269;SDS011;42176;43.240;27.880;2023-04-19T03:31:47;16.25;;;7.80;;
56269;SDS011;42176;43.240;27.880;2023-04-19T03:34:12;14.60;;;7.78;;
56269;SDS011;42176;43.240;27.880;2023-04-19T03:36:38;14.07;;;7.60;;
56269;SDS011;42176;43.240;27.880;2023-04-19T03:39:04;14.73;;;8.07;;
56269;SDS011;42176;43.240;27.880;2023-04-19T03:41:30;14.30;;;7.45;;
56269;SDS011;42176;43.240;27.880;2023-04-19T03:43:55;11.15;;;7.28;;
56269;SDS011;42176;43.240;27.880;2023-04-19T03:46:22;13.57;;;7.28;;
56269;SDS011;42176;43.240;27.880;2023-04-19T03:48:48;16.83;;;7.72;;
56269;SDS011;42176;43.240;27.880;2023-04-19T03:51:13;12.90;;;7.05;;
56269;SDS011;42176;43.240;27.880;2023-04-19T03:53:40;13.18;;;6.43;;
56269;SDS011;42176;43.240;27.880;2023-04-19T03:56:06;10.35;;;5.88;;
56269;SDS011;42176;43.240;27.880;2023-04-19T03:58:31;11.73;;;5.93;;
56269;SDS011;42176;43.240;27.880;2023-04-19T04:00:57;8.68;;;5.13;;
56269;SDS011;42176;43.240;27.880;2023-04-19T04:03:23;10.32;;;5.40;;
56269;SDS011;42176;43.240;27.880;2023-04-19T04:05:49;6.25;;;4.32;;
56269;SDS011;42176;43.240;27.880;2023-04-19T04:08:14;7.38;;;4.78;;
56269;SDS011;42176;43.240;27.880;2023-04-19T04:10:39;7.00;;;4.05;;
56269;SDS011;42176;43.240;27.880;2023-04-19T04:13:05;7.97;;;3.58;;
56269;SDS011;42176;43.240;27.880;2023-04-19T04:15:30;8.77;;;4.57;;
56269;SDS011;42176;43.240;27.880;2023-04-19T04:17:56;6.72;;;4.43;;
56269;SDS011;42176;43.240;27.880;2023-04-19T04:20:21;6.05;;;4.10;;
56269;SDS011;42176;43.240;27.880;2023-04-19T04:22:47;7.88;;;4.15;;
56269;SDS011;42176;43.240;27.880;2023-04-19T04:25:15;5.00;;;3.20;;
56269;SDS011;42176;43.240;27.880;2023-04-19T04:27:41;4.40;;;2.83;;
56269;SDS011;42176;43.240;27.880;2023-04-19T04:30:08;5.60;;;3.88;;
56269;SDS011;42176;43.240;27.880;2023-04-19T04:32:35;3.40;;;2.58;;
56269;SDS011;42176;43.240;27.880;2023-04-19T04:35:01;5.78;;;3.97;;
56269;SDS011;42176;43.240;27.880;2023-04-19T04:37:27;11.30;;;4.15;;
56269;SDS011;42176;43.240;27.880;2023-04-19T04:39:53;8.13;;;5.10;;
56269;SDS011;42176;43.240;27.880;2023-04-19T04:42:19;9.13;;;4.47;;
56269;SDS011;42176;43.240;27.880;2023-04-19T04:44:45;6.97;;;4.53;;
56269;SDS011;42176;43.240;27.880;2023-04-19T04:47:11;7.50;;;5.13;;
56269;SDS011;42176;43.240;27.880;2023-04-19T04:49:38;9.15;;;5.75;;
56269;SDS011;42176;43.240;27.880;2023-04-19T04:52:03;7.45;;;5.32;;
56269;SDS011;42176;43.240;27.880;2023-04-19T04:54:29;6.78;;;4.55;;
56269;SDS011;42176;43.240;27.880;2023-04-19T04:56:54;9.88;;;5.82;;
56269;SDS011;42176;43.240;27.880;2023-04-19T04:59:20;8.82;;;5.22;;
56269;SDS011;42176;43.240;27.880;2023-04-19T05:01:45;6.43;;;4.50;;
56269;SDS011;42176;43.240;27.880;2023-04-19T05:04:11;7.93;;;5.05;;
56269;SDS011;42176;43.240;27.880;2023-04-19T05:06:36;6.75;;;4.47;;
56269;SDS011;42176;43.240;27.880;2023-04-19T05:09:04;10.77;;;5.28;;
56269;SDS011;42176;43.240;27.880;2023-04-19T05:11:30;11.73;;;5.43;;
56269;SDS011;42176;43.240;27.880;2023-04-19T05:13:55;8.07;;;5.35;;
56269;SDS011;42176;43.240;27.880;2023-04-19T05:16:21;7.03;;;5.07;;
56269;SDS011;42176;43.240;27.880;2023-04-19T05:18:47;9.70;;;5.55;;
56269;SDS011;42176;43.240;27.880;2023-04-19T05:21:12;10.88;;;7.15;;
56269;SDS011;42176;43.240;27.880;2023-04-19T05:23:38;8.15;;;5.40;;
56269;SDS011;42176;43.240;27.880;2023-04-19T05:26:03;9.80;;;5.80;;
56269;SDS011;42176;43.240;27.880;2023-04-19T05:28:29;7.22;;;5.40;;
56269;SDS011;42176;43.240;27.880;2023-04-19T05:30:55;9.32;;;5.35;;
56269;SDS011;42176;43.240;27.880;2023-04-19T05:33:20;7.32;;;4.70;;
56269;SDS011;42176;43.240;27.880;2023-04-19T05:35:45;6.22;;;4.47;;
56269;SDS011;42176;43.240;27.880;2023-04-19T05:38:11;7.38;;;4.60;;
56269;SDS011;42176;43.240;27.880;2023-04-19T05:40:36;8.25;;;4.43;;
56269;SDS011;42176;43.240;27.880;2023-04-19T05:43:02;5.35;;;3.85;;
56269;SDS011;42176;43.240;27.880;2023-04-19T05:45:28;5.25;;;3.75;;
56269;SDS011;42176;43.240;27.880;2023-04-19T05:47:53;4.47;;;3.13;;
56269;SDS011;42176;43.240;27.880;2023-04-19T05:50:19;5.15;;;3.13;;
56269;SDS011;42176;43.240;27.880;2023-04-19T05:52:45;4.32;;;3.40;;
56269;SDS011;42176;43.240;27.880;2023-04-19T05:55:10;4.65;;;3.50;;
56269;SDS011;42176;43.240;27.880;2023-04-19T05:57:36;6.68;;;3.50;;
56269;SDS011;42176;43.240;27.880;2023-04-19T06:00:01;3.92;;;2.92;;
56269;SDS011;42176;43.240;27.880;2023-04-19T06:02:28;5.55;;;3.35;;
56269;SDS011;42176;43.240;27.880;2023-04-19T06:04:54;5.55;;;4.10;;
56269;SDS011;42176;43.240;27.880;2023-04-19T06:07:22;4.18;;;3.55;;
56269;SDS011;42176;43.240;27.880;2023-04-19T06:09:47;5.50;;;3.88;;
56269;SDS011;42176;43.240;27.880;2023-04-19T06:12:13;5.35;;;3.80;;
56269;SDS011;42176;43.240;27.880;2023-04-19T06:14:38;7.20;;;4.00;;
56269;SDS011;42176;43.240;27.880;2023-04-19T06:17:04;6.88;;;4.63;;
56269;SDS011;42176;43.240;27.880;2023-04-19T06:19:29;6.88;;;4.30;;
56269;SDS011;42176;43.240;27.880;2023-04-19T06:21:57;6.05;;;4.03;;
56269;SDS011;42176;43.240;27.880;2023-04-19T06:24:23;7.25;;;4.55;;
56269;SDS011;42176;43.240;27.880;2023-04-19T06:26:49;7.53;;;4.10;;
56269;SDS011;42176;43.240;27.880;2023-04-19T06:29:14;6.93;;;5.13;;
56269;SDS011;42176;43.240;27.880;2023-04-19T06:31:40;6.70;;;3.85;;
56269;SDS011;42176;43.240;27.880;2023-04-19T06:34:05;5.63;;;3.65;;
56269;SDS011;42176;43.240;27.880;2023-04-19T06:36:31;7.07;;;4.50;;
56269;SDS011;42176;43.240;27.880;2023-04-19T06:38:57;5.78;;;3.97;;
56269;SDS011;42176;43.240;27.880;2023-04-19T06:41:22;6.10;;;3.92;;
56269;SDS011;42176;43.240;27.880;2023-04-19T06:43:48;6.30;;;4.43;;
56269;SDS011;42176;43.240;27.880;2023-04-19T06:46:13;6.35;;;5.00;;
56269;SDS011;42176;43.240;27.880;2023-04-19T06:48:39;6.05;;;4.13;;
56269;SDS011;42176;43.240;27.880;2023-04-19T06:51:05;6.68;;;4.80;;
56269;SDS011;42176;43.240;27.880;2023-04-19T06:53:30;7.35;;;4.93;;
56269;SDS011;42176;43.240;27.880;2023-04-19T06:55:59;9.65;;;6.45;;
56269;SDS011;42176;43.240;27.880;2023-04-19T06:58:26;6.28;;;4.47;;
56269;SDS011;42176;43.240;27.880;2023-04-19T07:00:52;6.88;;;4.53;;
56269;SDS011;42176;43.240;27.880;2023-04-19T07:03:18;8.27;;;4.68;;
56269;SDS011;42176;43.240;27.880;2023-04-19T07:05:43;5.72;;;3.78;;
56269;SDS011;42176;43.240;27.880;2023-04-19T07:08:09;4.78;;;3.25;;
56269;SDS011;42176;43.240;27.880;2023-04-19T07:10:35;7.05;;;3.42;;
56269;SDS011;42176;43.240;27.880;2023-04-19T07:13:00;5.55;;;3.85;;
56269;SDS011;42176;43.240;27.880;2023-04-19T07:15:25;6.00;;;3.70;;
56269;SDS011;42176;43.240;27.880;2023-04-19T07:17:51;3.30;;;2.75;;
56269;SDS011;42176;43.240;27.880;2023-04-19T07:20:16;5.35;;;2.90;;
56269;SDS011;42176;43.240;27.880;2023-04-19T07:22:42;2.83;;;2.17;;
56269;SDS011;42176;43.240;27.880;2023-04-19T07:25:07;3.20;;;2.70;;
56269;SDS011;42176;43.240;27.880;2023-04-19T07:27:33;3.92;;;3.15;;
56269;SDS011;42176;43.240;27.880;2023-04-19T07:32:43;4.38;;;3.40;;
56269;SDS011;42176;43.240;27.880;2023-04-19T07:35:08;8.98;;;3.88;;
56269;SDS011;42176;43.240;27.880;2023-04-19T07:37:34;3.65;;;3.03;;
56269;SDS011;42176;43.240;27.880;2023-04-19T07:39:59;7.55;;;3.60;;
56269;SDS011;42176;43.240;27.880;2023-04-19T07:42:24;2.67;;;2.40;;
56269;SDS011;42176;43.240;27.880;2023-04-19T07:44:50;4.82;;;3.10;;
56269;SDS011;42176;43.240;27.880;2023-04-19T07:47:16;5.88;;;3.92;;
56269;SDS011;42176;43.240;27.880;2023-04-19T07:49:41;3.47;;;2.90;;
56269;SDS011;42176;43.240;27.880;2023-04-19T07:52:08;5.45;;;2.47;;
56269;SDS011;42176;43.240;27.880;2023-04-19T07:54:33;2.55;;;1.50;;
56269;SDS011;42176;43.240;27.880;2023-04-19T07:56:59;3.95;;;2.75;;
56269;SDS011;42176;43.240;27.880;2023-04-19T07:59:26;3.95;;;2.40;;
56269;SDS011;42176;43.240;27.880;2023-04-19T08:01:51;6.32;;;3.45;;
56269;SDS011;42176;43.240;27.880;2023-04-19T08:04:17;5.25;;;2.92;;
56269;SDS011;42176;43.240;27.880;2023-04-19T08:06:44;3.03;;;2.55;;
56269;SDS011;42176;43.240;27.880;2023-04-19T08:09:10;1.05;;;0.95;;
56269;SDS011;42176;43.240;27.880;2023-04-19T08:11:35;1.35;;;1.20;;
56269;SDS011;42176;43.240;27.880;2023-04-19T08:14:01;3.50;;;2.25;;
56269;SDS011;42176;43.240;27.880;2023-04-19T08:16:26;3.13;;;1.60;;
56269;SDS011;42176;43.240;27.880;2023-04-19T08:18:53;1.67;;;1.40;;
56269;SDS011;42176;43.240;27.880;2023-04-19T08:21:19;1.25;;;1.13;;
56269;SDS011;42176;43.240;27.880;2023-04-19T08:23:45;1.95;;;1.10;;
56269;SDS011;42176;43.240;27.880;2023-04-19T08:26:10;3.72;;;1.08;;
56269;SDS011;42176;43.240;27.880;2023-04-19T08:28:36;0.90;;;0.90;;
56269;SDS011;42176;43.240;27.880;2023-04-19T08:31:04;2.75;;;0.88;;
56269;SDS011;42176;43.240;27.880;2023-04-19T08:33:29;0.60;;;0.60;;
56269;SDS011;42176;43.240;27.880;2023-04-19T08:35:55;3.42;;;0.80;;
56269;SDS011;42176;43.240;27.880;2023-04-19T08:38:20;1.95;;;0.73;;
56269;SDS011;42176;43.240;27.880;2023-04-19T08:40:47;1.05;;;0.80;;
56269;SDS011;42176;43.240;27.880;2023-04-19T08:43:16;2.35;;;0.80;;
56269;SDS011;42176;43.240;27.880;2023-04-19T08:45:45;1.70;;;1.00;;
56269;SDS011;42176;43.240;27.880;2023-04-19T08:48:11;1.23;;;0.90;;
56269;SDS011;42176;43.240;27.880;2023-04-19T08:50:40;0.70;;;0.60;;
56269;SDS011;42176;43.240;27.880;2023-04-19T08:53:09;0.93;;;0.50;;
56269;SDS011;42176;43.240;27.880;2023-04-19T08:55:39;3.08;;;1.23;;
56269;SDS011;42176;43.240;27.880;2023-04-19T08:58:05;1.42;;;0.90;;
56269;SDS011;42176;43.240;27.880;2023-04-19T09:00:32;1.00;;;0.63;;
56269;SDS011;42176;43.240;27.880;2023-04-19T09:02:58;0.30;;;0.30;;
56269;SDS011;42176;43.240;27.880;2023-04-19T09:05:24;0.50;;;0.40;;
56269;SDS011;42176;43.240;27.880;2023-04-19T09:07:50;0.73;;;0.73;;
56269;SDS011;42176;43.240;27.880;2023-04-19T09:10:19;0.40;;;0.40;;
56269;SDS011;42176;43.240;27.880;2023-04-19T09:13:01;0.43;;;0.25;;
56269;SDS011;42176;43.240;27.880;2023-04-19T09:15:38;0.65;;;0.60;;
56269;SDS011;42176;43.240;27.880;2023-04-19T09:18:08;0.40;;;0.38;;
56269;SDS011;42176;43.240;27.880;2023-04-19T09:20:41;0.40;;;0.40;;
56269;SDS011;42176;43.240;27.880;2023-04-19T09:23:09;1.00;;;0.30;;
56269;SDS011;42176;43.240;27.880;2023-04-19T09:25:39;1.05;;;0.60;;
56269;SDS011;42176;43.240;27.880;2023-04-19T09:28:16;0.52;;;0.43;;
56269;SDS011;42176;43.240;27.880;2023-04-19T09:30:41;0.80;;;0.70;;
56269;SDS011;42176;43.240;27.880;2023-04-19T09:33:07;0.55;;;0.52;;
56269;SDS011;42176;43.240;27.880;2023-04-19T09:35:39;0.40;;;0.40;;
56269;SDS011;42176;43.240;27.880;2023-04-19T09:38:06;3.92;;;1.02;;
56269;SDS011;42176;43.240;27.880;2023-04-19T09:40:32;1.20;;;0.70;;
56269;SDS011;42176;43.240;27.880;2023-04-19T09:42:57;3.35;;;1.73;;
56269;SDS011;42176;43.240;27.880;2023-04-19T09:45:23;3.78;;;1.10;;
56269;SDS011;42176;43.240;27.880;2023-04-19T09:48:01;2.47;;;1.20;;
56269;SDS011;42176;43.240;27.880;2023-04-19T09:50:28;3.60;;;1.88;;
56269;SDS011;42176;43.240;27.880;2023-04-19T09:52:53;4.07;;;1.02;;
56269;SDS011;42176;43.240;27.880;2023-04-19T09:55:19;0.60;;;0.60;;
56269;SDS011;42176;43.240;27.880;2023-04-19T09:57:45;0.30;;;0.30;;
56269;SDS011;42176;43.240;27.880;2023-04-19T10:00:11;1.35;;;0.40;;
56269;SDS011;42176;43.240;27.880;2023-04-19T10:02:39;0.35;;;0.35;;
56269;SDS011;42176;43.240;27.880;2023-04-19T10:05:06;2.55;;;0.43;;
56269;SDS011;42176;43.240;27.880;2023-04-19T10:07:34;0.63;;;0.28;;
56269;SDS011;42176;43.240;27.880;2023-04-19T10:10:01;0.15;;;0.15;;
56269;SDS011;42176;43.240;27.880;2023-04-19T10:12:27;0.43;;;0.20;;
56269;SDS011;42176;43.240;27.880;2023-04-19T10:14:55;0.30;;;0.30;;
56269;SDS011;42176;43.240;27.880;2023-04-19T10:17:23;0.65;;;0.65;;
56269;SDS011;42176;43.240;27.880;2023-04-19T10:23:01;0.95;;;0.70;;
56269;SDS011;42176;43.240;27.880;2023-04-19T10:25:28;1.02;;;0.65;;
56269;SDS011;42176;43.240;27.880;2023-04-19T10:27:54;0.95;;;0.40;;
56269;SDS011;42176;43.240;27.880;2023-04-19T10:30:23;1.60;;;0.52;;
56269;SDS011;42176;43.240;27.880;2023-04-19T10:32:52;0.73;;;0.70;;
56269;SDS011;42176;43.240;27.880;2023-04-19T10:35:19;2.88;;;1.75;;
56269;SDS011;42176;43.240;27.880;2023-04-19T10:38:34;1.33;;;1.08;;
56269;SDS011;42176;43.240;27.880;2023-04-19T10:43:20;1.08;;;0.98;;
56269;SDS011;42176;43.240;27.880;2023-04-19T10:45:47;1.08;;;1.05;;
56269;SDS011;42176;43.240;27.880;2023-04-19T10:56:10;2.40;;;1.63;;
56269;SDS011;42176;43.240;27.880;2023-04-19T11:01:35;2.05;;;1.20;;
56269;SDS011;42176;43.240;27.880;2023-04-19T11:04:03;2.63;;;0.60;;
56269;SDS011;42176;43.240;27.880;2023-04-19T11:06:32;2.03;;;1.00;;
56269;SDS011;42176;43.240;27.880;2023-04-19T11:09:00;2.25;;;1.55;;
56269;SDS011;42176;43.240;27.880;2023-04-19T11:11:28;3.65;;;1.20;;
56269;SDS011;42176;43.240;27.880;2023-04-19T11:13:57;1.95;;;0.90;;
56269;SDS011;42176;43.240;27.880;2023-04-19T11:16:26;1.30;;;0.88;;
56269;SDS011;42176;43.240;27.880;2023-04-19T11:18:52;4.30;;;1.70;;
56269;SDS011;42176;43.240;27.880;2023-04-19T11:21:18;1.33;;;0.80;;
56269;SDS011;42176;43.240;27.880;2023-04-19T11:23:44;1.45;;;1.00;;
56269;SDS011;42176;43.240;27.880;2023-04-19T11:26:11;0.98;;;0.77;;
56269;SDS011;42176;43.240;27.880;2023-04-19T11:28:37;1.15;;;0.95;;
56269;SDS011;42176;43.240;27.880;2023-04-19T11:31:03;1.42;;;1.33;;
56269;SDS011;42176;43.240;27.880;2023-04-19T11:33:32;5.40;;;0.98;;
56269;SDS011;42176;43.240;27.880;2023-04-19T11:36:01;5.50;;;1.63;;
56269;SDS011;42176;43.240;27.880;2023-04-19T11:38:28;2.85;;;1.63;;
56269;SDS011;42176;43.240;27.880;2023-04-19T11:40:59;2.03;;;1.60;;
56269;SDS011;42176;43.240;27.880;2023-04-19T11:46:03;2.05;;;1.73;;
56269;SDS011;42176;43.240;27.880;2023-04-19T11:48:30;4.38;;;2.58;;
56269;SDS011;42176;43.240;27.880;2023-04-19T11:50:57;4.32;;;2.50;;
56269;SDS011;42176;43.240;27.880;2023-04-19T11:53:24;5.10;;;3.20;;
56269;SDS011;42176;43.240;27.880;2023-04-19T11:56:04;4.15;;;2.50;;
56269;SDS011;42176;43.240;27.880;2023-04-19T11:58:31;12.05;;;3.97;;
56269;SDS011;42176;43.240;27.880;2023-04-19T12:03:31;4.78;;;4.10;;
56269;SDS011;42176;43.240;27.880;2023-04-19T12:06:00;6.95;;;3.70;;
56269;SDS011;42176;43.240;27.880;2023-04-19T12:08:36;5.15;;;3.25;;
56269;SDS011;42176;43.240;27.880;2023-04-19T12:11:08;7.05;;;4.47;;
56269;SDS011;42176;43.240;27.880;2023-04-19T12:13:34;8.60;;;4.40;;
56269;SDS011;42176;43.240;27.880;2023-04-19T12:16:00;8.07;;;4.18;;
56269;SDS011;42176;43.240;27.880;2023-04-19T12:18:26;10.43;;;3.80;;
56269;SDS011;42176;43.240;27.880;2023-04-19T12:20:52;4.68;;;3.63;;
56269;SDS011;42176;43.240;27.880;2023-04-19T12:23:18;5.65;;;3.92;;
56269;SDS011;42176;43.240;27.880;2023-04-19T12:25:45;7.75;;;3.85;;
56269;SDS011;42176;43.240;27.880;2023-04-19T12:28:12;12.43;;;4.40;;
56269;SDS011;42176;43.240;27.880;2023-04-19T12:30:38;6.15;;;3.72;;
56269;SDS011;42176;43.240;27.880;2023-04-19T12:33:07;9.90;;;3.70;;
56269;SDS011;42176;43.240;27.880;2023-04-19T12:35:33;4.82;;;4.07;;
56269;SDS011;42176;43.240;27.880;2023-04-19T12:37:59;7.32;;;4.00;;
56269;SDS011;42176;43.240;27.880;2023-04-19T12:40:26;7.63;;;4.60;;
56269;SDS011;42176;43.240;27.880;2023-04-19T12:42:52;6.45;;;3.80;;
56269;SDS011;42176;43.240;27.880;2023-04-19T12:45:18;5.82;;;3.45;;
56269;SDS011;42176;43.240;27.880;2023-04-19T12:47:45;5.53;;;3.83;;
56269;SDS011;42176;43.240;27.880;2023-04-19T12:50:12;9.95;;;3.50;;
56269;SDS011;42176;43.240;27.880;2023-04-19T12:52:38;6.57;;;3.97;;
56269;SDS011;42176;43.240;27.880;2023-04-19T12:55:04;13.48;;;4.90;;
56269;SDS011;42176;43.240;27.880;2023-04-19T12:57:30;5.63;;;3.60;;
56269;SDS011;42176;43.240;27.880;2023-04-19T12:59:55;5.65;;;2.78;;
56269;SDS011;42176;43.240;27.880;2023-04-19T13:02:21;5.45;;;2.78;;
56269;SDS011;42176;43.240;27.880;2023-04-19T13:04:46;8.55;;;3.72;;
56269;SDS011;42176;43.240;27.880;2023-04-19T13:07:12;7.50;;;3.47;;
56269;SDS011;42176;43.240;27.880;2023-04-19T13:09:37;8.07;;;3.60;;
56269;SDS011;42176;43.240;27.880;2023-04-19T13:12:06;7.72;;;3.55;;
56269;SDS011;42176;43.240;27.880;2023-04-19T13:14:32;6.70;;;3.38;;
56269;SDS011;42176;43.240;27.880;2023-04-19T13:16:57;6.80;;;3.20;;
56269;SDS011;42176;43.240;27.880;2023-04-19T13:19:23;3.78;;;2.95;;
56269;SDS011;42176;43.240;27.880;2023-04-19T13:21:48;3.15;;;2.63;;
56269;SDS011;42176;43.240;27.880;2023-04-19T13:24:13;6.28;;;3.10;;
56269;SDS011;42176;43.240;27.880;2023-04-19T13:26:39;6.38;;;3.13;;
56269;SDS011;42176;43.240;27.880;2023-04-19T13:29:05;13.88;;;4.40;;
56269;SDS011;42176;43.240;27.880;2023-04-19T13:31:32;7.55;;;3.10;;
56269;SDS011;42176;43.240;27.880;2023-04-19T13:33:58;3.85;;;2.70;;
56269;SDS011;42176;43.240;27.880;2023-04-19T13:36:24;3.13;;;2.53;;
56269;SDS011;42176;43.240;27.880;2023-04-19T13:38:49;7.25;;;2.85;;
56269;SDS011;42176;43.240;27.880;2023-04-19T13:41:15;3.67;;;2.33;;
56269;SDS011;42176;43.240;27.880;2023-04-19T13:43:40;11.15;;;3.42;;
56269;SDS011;42176;43.240;27.880;2023-04-19T13:46:06;8.25;;;3.22;;
56269;SDS011;42176;43.240;27.880;2023-04-19T13:48:31;7.53;;;2.75;;
56269;SDS011;42176;43.240;27.880;2023-04-19T13:50:57;7.15;;;2.40;;
56269;SDS011;42176;43.240;27.880;2023-04-19T13:53:24;3.08;;;2.10;;
56269;SDS011;42176;43.240;27.880;2023-04-19T13:55:50;18.08;;;3.05;;
56269;SDS011;42176;43.240;27.880;2023-04-19T13:58:16;5.05;;;2.90;;
56269;SDS011;42176;43.240;27.880;2023-04-19T14:00:42;6.07;;;2.50;;
56269;SDS011;42176;43.240;27.880;2023-04-19T14:03:08;3.05;;;1.90;;
56269;SDS011;42176;43.240;27.880;2023-04-19T14:05:34;9.00;;;2.60;;
56269;SDS011;42176;43.240;27.880;2023-04-19T14:08:00;7.55;;;2.58;;
56269;SDS011;42176;43.240;27.880;2023-04-19T14:10:25;5.18;;;2.70;;
56269;SDS011;42176;43.240;27.880;2023-04-19T14:12:51;3.28;;;2.08;;
56269;SDS011;42176;43.240;27.880;2023-04-19T14:15:20;3.03;;;2.30;;
56269;SDS011;42176;43.240;27.880;2023-04-19T14:17:47;7.15;;;3.17;;
56269;SDS011;42176;43.240;27.880;2023-04-19T14:20:12;3.70;;;2.92;;
56269;SDS011;42176;43.240;27.880;2023-04-19T14:22:38;4.22;;;2.05;;
56269;SDS011;42176;43.240;27.880;2023-04-19T14:25:04;11.55;;;2.63;;
56269;SDS011;42176;43.240;27.880;2023-04-19T14:27:30;11.52;;;2.95;;
56269;SDS011;42176;43.240;27.880;2023-04-19T14:29:56;14.57;;;3.90;;
56269;SDS011;42176;43.240;27.880;2023-04-19T14:32:21;5.63;;;2.90;;
56269;SDS011;42176;43.240;27.880;2023-04-19T14:34:47;9.05;;;3.70;;
56269;SDS011;42176;43.240;27.880;2023-04-19T14:37:12;8.20;;;3.40;;
56269;SDS011;42176;43.240;27.880;2023-04-19T14:39:38;8.13;;;3.45;;
56269;SDS011;42176;43.240;27.880;2023-04-19T14:42:03;5.63;;;3.63;;
56269;SDS011;42176;43.240;27.880;2023-04-19T14:44:29;16.08;;;4.63;;
56269;SDS011;42176;43.240;27.880;2023-04-19T14:46:54;9.70;;;3.17;;
56269;SDS011;42176;43.240;27.880;2023-04-19T14:49:20;7.90;;;3.63;;